Almalyk, Uzbekistan
Current Conditions -  °F | °C
As of 12:00 PM on Sunday 23 Nov 2014 (Local Time) from UTTT Reporting Station
Clear Clear  
Wind Chill: 52°   Ceiling: Unl
Heat Index: 52°   Visibility: 6mi
Dew Point: 25°   Wind: 6mph
Humidity: 35%   Direction: 80°E
Pressure: 29.97"   Gusts: NA
Location:  40.84°N, 69.58°E
Report Text: UTTT 230700Z 08005KT 040V110 CAVOK 11/M04 Q1015 R88/CLRD70NOSIG
Loading
Personal Weather Stations






























Interactive Weather Map New forecast layout! Learn more

10-Day Weather Forecast

Advertisements
Track Severe Weather on mobile